Overview Statistics Trail Chart Weather Telemetry Raw packets
 

This is the latest recevied weather packets stored in our database for station/object EA4URC-10. If no packets are shown the sender has not sent any weather packets the latest 10 day(s).

<< 1 2 3 4 5 6 >>
Time Temp. Humidity Pressure Rain* Wind** Luminosity Snow
1788527405 38.33° C 9% 1040.5 hPa - - - -
1788525604 37.78° C 9% 1040.9 hPa - - - -
1788523804 37.22° C 9% 1041.1 hPa - - - -
1788522003 37.22° C 9% 1041.3 hPa - - - -
1788520202 38.33° C 9% 1041.6 hPa - - - -
1788518401 36.67° C 10% 1041.5 hPa - - - -
1788516601 36.67° C 10% 1041.5 hPa - - - -
1788514800 36.67° C 10% 1041.7 hPa - - - -
1788513000 37.22° C 10% 1041.5 hPa - - - -
1788511205 35° C 10% 1041.3 hPa - - - -
1788509405 32.78° C 12% 1041.1 hPa - - - -
1788507604 31.67° C 13% 1041.1 hPa - - - -
1788505803 29.44° C 15% 1041 hPa - - - -
1788504003 26.67° C 18% 1040.9 hPa - - - -
1788502202 23.89° C 20% 1040.8 hPa - - - -
1788500403 22.78° C 20% 1040.6 hPa - - - -
1788498601 22.78° C 20% 1040.6 hPa - - - -
1788496801 22.78° C 20% 1040.6 hPa - - - -
1788495000 22.78° C 19% 1040.6 hPa - - - -
1788493671 22.78° C 19% 1040.6 hPa - - - -
1788493200 22.78° C 19% 1040.6 hPa - - - -
1788491400 23.33° C 19% 1040.8 hPa - - - -
1788489605 23.89° C 18% 1040.8 hPa - - - -
1788487804 23.89° C 17% 1041 hPa - - - -
1788486003 24.44° C 17% 1041.1 hPa - - - -

* Rain since midnight (hover to see other rain measurements)
** Current wind speed in m/s (hover to see current wind gust speed)